sensor_id;sensor_type;location;lat;lon;timestamp;temperature;humidity
4795;DHT22;2411;47.060;15.064;2023-02-15T00:01:55;-1.00;1.00
4795;DHT22;2411;47.060;15.064;2023-02-15T00:04:24;-1.20;1.00
4795;DHT22;2411;47.060;15.064;2023-02-15T00:07:16;-1.20;1.00
4795;DHT22;2411;47.060;15.064;2023-02-15T00:09:46;-1.20;1.00
4795;DHT22;2411;47.060;15.064;2023-02-15T00:12:14;-1.10;1.00
4795;DHT22;2411;47.060;15.064;2023-02-15T00:14:42;-1.10;1.00
4795;DHT22;2411;47.060;15.064;2023-02-15T00:17:09;-1.20;1.00
4795;DHT22;2411;47.060;15.064;2023-02-15T00:19:36;-1.10;1.60
4795;DHT22;2411;47.060;15.064;2023-02-15T00:22:03;-1.00;3.00
4795;DHT22;2411;47.060;15.064;2023-02-15T00:24:31;-1.00;4.00
4795;DHT22;2411;47.060;15.064;2023-02-15T00:26:58;-0.90;2.80
4795;DHT22;2411;47.060;15.064;2023-02-15T00:29:26;-0.80;3.40
4795;DHT22;2411;47.060;15.064;2023-02-15T00:31:53;-0.60;1.00
4795;DHT22;2411;47.060;15.064;2023-02-15T00:34:23;-0.60;1.00
4795;DHT22;2411;47.060;15.064;2023-02-15T00:36:50;-0.50;1.00
4795;DHT22;2411;47.060;15.064;2023-02-15T00:39:18;-0.50;1.00
4795;DHT22;2411;47.060;15.064;2023-02-15T00:41:46;-0.60;1.00
4795;DHT22;2411;47.060;15.064;2023-02-15T00:44:14;-0.60;1.00
4795;DHT22;2411;47.060;15.064;2023-02-15T00:46:41;-0.60;1.00
4795;DHT22;2411;47.060;15.064;2023-02-15T00:49:09;-0.60;1.00
4795;DHT22;2411;47.060;15.064;2023-02-15T00:51:37;-0.60;1.00
4795;DHT22;2411;47.060;15.064;2023-02-15T00:54:04;-0.60;1.00
4795;DHT22;2411;47.060;15.064;2023-02-15T00:58:59;-0.60;1.00
4795;DHT22;2411;47.060;15.064;2023-02-15T01:01:26;-0.70;1.00
4795;DHT22;2411;47.060;15.064;2023-02-15T01:03:54;-0.80;1.00
4795;DHT22;2411;47.060;15.064;2023-02-15T01:06:21;-0.80;1.00
4795;DHT22;2411;47.060;15.064;2023-02-15T01:08:48;-0.90;1.00
4795;DHT22;2411;47.060;15.064;2023-02-15T01:11:18;-0.80;1.00
4795;DHT22;2411;47.060;15.064;2023-02-15T01:13:54;-0.80;1.00
4795;DHT22;2411;47.060;15.064;2023-02-15T01:16:23;-0.80;1.00
4795;DHT22;2411;47.060;15.064;2023-02-15T01:18:50;-0.70;1.00
4795;DHT22;2411;47.060;15.064;2023-02-15T01:21:20;-0.60;1.00
4795;DHT22;2411;47.060;15.064;2023-02-15T01:23:48;-0.50;1.00
4795;DHT22;2411;47.060;15.064;2023-02-15T01:26:16;-0.50;1.00
4795;DHT22;2411;47.060;15.064;2023-02-15T01:28:44;-0.50;1.00
4795;DHT22;2411;47.060;15.064;2023-02-15T01:31:15;-0.50;1.00
4795;DHT22;2411;47.060;15.064;2023-02-15T01:33:42;-0.50;1.00
4795;DHT22;2411;47.060;15.064;2023-02-15T01:36:10;-0.40;1.00
4795;DHT22;2411;47.060;15.064;2023-02-15T01:38:37;-0.40;1.00
4795;DHT22;2411;47.060;15.064;2023-02-15T01:41:04;-0.40;1.00
4795;DHT22;2411;47.060;15.064;2023-02-15T01:43:50;-0.40;1.00
4795;DHT22;2411;47.060;15.064;2023-02-15T01:46:20;-0.20;1.00
4795;DHT22;2411;47.060;15.064;2023-02-15T01:48:52;-0.20;1.10
4795;DHT22;2411;47.060;15.064;2023-02-15T01:51:24;-0.10;1.00
4795;DHT22;2411;47.060;15.064;2023-02-15T01:54:17;0.00;2.50
4795;DHT22;2411;47.060;15.064;2023-02-15T01:56:47;0.10;7.60
4795;DHT22;2411;47.060;15.064;2023-02-15T01:59:19;0.30;8.00
4795;DHT22;2411;47.060;15.064;2023-02-15T02:01:48;0.30;22.30
4795;DHT22;2411;47.060;15.064;2023-02-15T02:04:31;0.30;9.50
4795;DHT22;2411;47.060;15.064;2023-02-15T02:06:59;0.40;10.90
4795;DHT22;2411;47.060;15.064;2023-02-15T02:09:27;0.60;11.90
4795;DHT22;2411;47.060;15.064;2023-02-15T02:11:54;0.50;11.60
4795;DHT22;2411;47.060;15.064;2023-02-15T02:14:23;0.50;12.60
4795;DHT22;2411;47.060;15.064;2023-02-15T02:17:15;0.60;13.20
4795;DHT22;2411;47.060;15.064;2023-02-15T02:41:55;0.70;9.90
4795;DHT22;2411;47.060;15.064;2023-02-15T02:46:59;0.70;7.50
4795;DHT22;2411;47.060;15.064;2023-02-15T02:49:41;0.70;6.20
4795;DHT22;2411;47.060;15.064;2023-02-15T02:55:02;0.60;4.10
4795;DHT22;2411;47.060;15.064;2023-02-15T02:57:32;0.60;5.10
4795;DHT22;2411;47.060;15.064;2023-02-15T03:00:02;0.50;5.20
4795;DHT22;2411;47.060;15.064;2023-02-15T03:02:38;0.60;5.90
4795;DHT22;2411;47.060;15.064;2023-02-15T03:05:11;0.50;5.30
4795;DHT22;2411;47.060;15.064;2023-02-15T03:07:41;0.60;5.90
4795;DHT22;2411;47.060;15.064;2023-02-15T03:10:10;0.60;5.40
4795;DHT22;2411;47.060;15.064;2023-02-15T03:12:39;0.50;6.20
4795;DHT22;2411;47.060;15.064;2023-02-15T03:15:31;0.50;7.40
4795;DHT22;2411;47.060;15.064;2023-02-15T03:18:22;0.50;7.70
4795;DHT22;2411;47.060;15.064;2023-02-15T03:20:51;0.60;6.40
4795;DHT22;2411;47.060;15.064;2023-02-15T03:23:23;0.50;6.90
4795;DHT22;2411;47.060;15.064;2023-02-15T03:25:57;0.50;6.30
4795;DHT22;2411;47.060;15.064;2023-02-15T03:28:41;0.50;7.40
4795;DHT22;2411;47.060;15.064;2023-02-15T03:31:11;0.50;8.00
4795;DHT22;2411;47.060;15.064;2023-02-15T03:33:55;0.50;7.10
4795;DHT22;2411;47.060;15.064;2023-02-15T03:36:31;0.50;7.80
4795;DHT22;2411;47.060;15.064;2023-02-15T03:39:07;0.50;7.20
4795;DHT22;2411;47.060;15.064;2023-02-15T03:41:42;0.50;7.70
4795;DHT22;2411;47.060;15.064;2023-02-15T03:44:22;0.50;6.50
4795;DHT22;2411;47.060;15.064;2023-02-15T03:47:04;0.40;3.20
4795;DHT22;2411;47.060;15.064;2023-02-15T03:49:54;0.40;3.40
4795;DHT22;2411;47.060;15.064;2023-02-15T03:52:24;0.50;3.60
4795;DHT22;2411;47.060;15.064;2023-02-15T03:54:52;0.50;2.30
4795;DHT22;2411;47.060;15.064;2023-02-15T03:57:22;0.40;2.90
4795;DHT22;2411;47.060;15.064;2023-02-15T04:00:22;0.40;4.10
4795;DHT22;2411;47.060;15.064;2023-02-15T04:03:50;0.40;3.30
4795;DHT22;2411;47.060;15.064;2023-02-15T04:06:09;0.40;4.60
4795;DHT22;2411;47.060;15.064;2023-02-15T04:08:36;0.40;4.10
4795;DHT22;2411;47.060;15.064;2023-02-15T04:11:22;0.40;3.60
4795;DHT22;2411;47.060;15.064;2023-02-15T04:13:50;0.50;2.90
4795;DHT22;2411;47.060;15.064;2023-02-15T04:16:24;0.50;2.00
4795;DHT22;2411;47.060;15.064;2023-02-15T04:18:51;0.40;1.80
4795;DHT22;2411;47.060;15.064;2023-02-15T04:21:37;0.40;2.60
4795;DHT22;2411;47.060;15.064;2023-02-15T04:24:23;0.50;3.30
4795;DHT22;2411;47.060;15.064;2023-02-15T04:27:08;0.50;2.90
4795;DHT22;2411;47.060;15.064;2023-02-15T04:29:36;0.50;3.30
4795;DHT22;2411;47.060;15.064;2023-02-15T04:32:03;0.50;3.30
4795;DHT22;2411;47.060;15.064;2023-02-15T04:34:30;0.50;3.60
4795;DHT22;2411;47.060;15.064;2023-02-15T04:36:57;0.50;3.00
4795;DHT22;2411;47.060;15.064;2023-02-15T04:39:25;0.40;3.80
4795;DHT22;2411;47.060;15.064;2023-02-15T04:41:52;0.40;3.40
4795;DHT22;2411;47.060;15.064;2023-02-15T04:44:19;0.40;3.00
4795;DHT22;2411;47.060;15.064;2023-02-15T04:46:46;0.30;3.80
4795;DHT22;2411;47.060;15.064;2023-02-15T04:49:14;0.30;3.80
4795;DHT22;2411;47.060;15.064;2023-02-15T04:51:41;0.30;4.60
4795;DHT22;2411;47.060;15.064;2023-02-15T04:54:08;0.30;4.70
4795;DHT22;2411;47.060;15.064;2023-02-15T04:56:36;0.30;4.70
4795;DHT22;2411;47.060;15.064;2023-02-15T04:59:04;0.30;4.00
4795;DHT22;2411;47.060;15.064;2023-02-15T05:01:32;0.30;4.20
4795;DHT22;2411;47.060;15.064;2023-02-15T05:03:59;0.30;3.40
4795;DHT22;2411;47.060;15.064;2023-02-15T05:06:26;0.40;3.40
4795;DHT22;2411;47.060;15.064;2023-02-15T05:08:53;0.40;3.30
4795;DHT22;2411;47.060;15.064;2023-02-15T05:11:21;0.40;3.60
4795;DHT22;2411;47.060;15.064;2023-02-15T05:13:48;0.30;2.80
4795;DHT22;2411;47.060;15.064;2023-02-15T05:16:15;0.40;2.80
4795;DHT22;2411;47.060;15.064;2023-02-15T05:18:43;0.40;3.20
4795;DHT22;2411;47.060;15.064;2023-02-15T05:21:10;0.30;2.10
4795;DHT22;2411;47.060;15.064;2023-02-15T05:23:37;0.30;1.10
4795;DHT22;2411;47.060;15.064;2023-02-15T05:26:05;0.20;2.50
4795;DHT22;2411;47.060;15.064;2023-02-15T05:28:51;0.10;1.80
4795;DHT22;2411;47.060;15.064;2023-02-15T05:31:18;0.10;3.10
4795;DHT22;2411;47.060;15.064;2023-02-15T05:33:46;0.10;3.30
4795;DHT22;2411;47.060;15.064;2023-02-15T05:36:14;0.10;2.80
4795;DHT22;2411;47.060;15.064;2023-02-15T05:38:41;0.20;3.00
4795;DHT22;2411;47.060;15.064;2023-02-15T05:41:10;0.00;3.80
4795;DHT22;2411;47.060;15.064;2023-02-15T05:43:38;0.10;5.80
4795;DHT22;2411;47.060;15.064;2023-02-15T05:46:05;0.40;5.10
4795;DHT22;2411;47.060;15.064;2023-02-15T05:48:34;0.20;3.30
4795;DHT22;2411;47.060;15.064;2023-02-15T05:51:06;0.10;2.70
4795;DHT22;2411;47.060;15.064;2023-02-15T05:53:36;0.00;4.20
4795;DHT22;2411;47.060;15.064;2023-02-15T05:56:05;0.00;3.20
4795;DHT22;2411;47.060;15.064;2023-02-15T05:58:35;-0.10;3.40
4795;DHT22;2411;47.060;15.064;2023-02-15T06:03:36;-0.20;4.40
4795;DHT22;2411;47.060;15.064;2023-02-15T06:06:04;-0.20;4.20
4795;DHT22;2411;47.060;15.064;2023-02-15T06:08:32;-0.20;1.80
4795;DHT22;2411;47.060;15.064;2023-02-15T06:10:59;-0.20;1.00
4795;DHT22;2411;47.060;15.064;2023-02-15T06:13:27;-0.20;1.00
4795;DHT22;2411;47.060;15.064;2023-02-15T06:15:54;-0.10;1.00
4795;DHT22;2411;47.060;15.064;2023-02-15T06:18:21;-0.20;1.00
4795;DHT22;2411;47.060;15.064;2023-02-15T06:20:49;-0.10;1.40
4795;DHT22;2411;47.060;15.064;2023-02-15T06:23:16;-0.20;1.00
4795;DHT22;2411;47.060;15.064;2023-02-15T06:25:45;-0.20;2.00
4795;DHT22;2411;47.060;15.064;2023-02-15T06:28:13;-0.10;1.40
4795;DHT22;2411;47.060;15.064;2023-02-15T06:30:40;-0.10;1.00
4795;DHT22;2411;47.060;15.064;2023-02-15T06:33:07;-0.20;1.00
4795;DHT22;2411;47.060;15.064;2023-02-15T06:35:35;-0.20;1.00
4795;DHT22;2411;47.060;15.064;2023-02-15T06:38:02;-0.20;1.40
4795;DHT22;2411;47.060;15.064;2023-02-15T06:40:29;-0.20;1.20
4795;DHT22;2411;47.060;15.064;2023-02-15T06:42:57;-0.20;1.20
4795;DHT22;2411;47.060;15.064;2023-02-15T06:45:24;-0.30;1.00
4795;DHT22;2411;47.060;15.064;2023-02-15T06:47:51;-0.30;1.00
4795;DHT22;2411;47.060;15.064;2023-02-15T06:50:18;-0.20;1.00
4795;DHT22;2411;47.060;15.064;2023-02-15T06:52:45;-0.30;1.00
4795;DHT22;2411;47.060;15.064;2023-02-15T06:55:13;-0.30;1.00
4795;DHT22;2411;47.060;15.064;2023-02-15T06:57:40;-0.30;1.00
4795;DHT22;2411;47.060;15.064;2023-02-15T07:00:07;-0.40;1.00
4795;DHT22;2411;47.060;15.064;2023-02-15T07:02:35;-0.40;1.00
4795;DHT22;2411;47.060;15.064;2023-02-15T07:05:02;-0.40;1.00
4795;DHT22;2411;47.060;15.064;2023-02-15T07:07:34;-0.40;1.00
4795;DHT22;2411;47.060;15.064;2023-02-15T07:10:02;-0.30;1.30
4795;DHT22;2411;47.060;15.064;2023-02-15T07:12:30;-0.30;1.00
4795;DHT22;2411;47.060;15.064;2023-02-15T07:15:12;-0.20;1.00
4795;DHT22;2411;47.060;15.064;2023-02-15T07:17:40;-0.30;1.00
4795;DHT22;2411;47.060;15.064;2023-02-15T07:20:13;-0.30;1.00
4795;DHT22;2411;47.060;15.064;2023-02-15T07:22:41;-0.40;1.00
4795;DHT22;2411;47.060;15.064;2023-02-15T07:25:09;-0.30;1.00
4795;DHT22;2411;47.060;15.064;2023-02-15T07:27:37;-0.30;1.00
4795;DHT22;2411;47.060;15.064;2023-02-15T07:30:06;-0.20;1.00
4795;DHT22;2411;47.060;15.064;2023-02-15T07:32:34;-0.10;1.00
4795;DHT22;2411;47.060;15.064;2023-02-15T07:35:01;0.00;1.00
4795;DHT22;2411;47.060;15.064;2023-02-15T07:37:28;0.00;1.00
4795;DHT22;2411;47.060;15.064;2023-02-15T07:39:55;-0.10;1.00
4795;DHT22;2411;47.060;15.064;2023-02-15T07:42:22;0.00;1.00
4795;DHT22;2411;47.060;15.064;2023-02-15T07:44:50;-0.20;1.00
4795;DHT22;2411;47.060;15.064;2023-02-15T07:47:17;-0.20;1.00
4795;DHT22;2411;47.060;15.064;2023-02-15T07:49:44;-0.30;1.00
4795;DHT22;2411;47.060;15.064;2023-02-15T07:52:11;-0.10;1.00
4795;DHT22;2411;47.060;15.064;2023-02-15T07:54:39;0.00;1.00
4795;DHT22;2411;47.060;15.064;2023-02-15T07:57:06;-0.10;1.00
4795;DHT22;2411;47.060;15.064;2023-02-15T07:59:33;0.10;1.00
4795;DHT22;2411;47.060;15.064;2023-02-15T08:02:00;0.20;1.00
4795;DHT22;2411;47.060;15.064;2023-02-15T08:04:27;0.20;1.00
4795;DHT22;2411;47.060;15.064;2023-02-15T08:06:54;0.30;1.00
4795;DHT22;2411;47.060;15.064;2023-02-15T08:09:22;0.30;1.00
4795;DHT22;2411;47.060;15.064;2023-02-15T08:11:49;0.30;1.00
4795;DHT22;2411;47.060;15.064;2023-02-15T08:14:19;0.50;1.00
4795;DHT22;2411;47.060;15.064;2023-02-15T08:16:53;0.60;1.00
4795;DHT22;2411;47.060;15.064;2023-02-15T08:19:26;0.70;1.00
4795;DHT22;2411;47.060;15.064;2023-02-15T08:22:02;0.80;1.00
4795;DHT22;2411;47.060;15.064;2023-02-15T08:24:35;0.70;1.00
4795;DHT22;2411;47.060;15.064;2023-02-15T08:27:07;0.60;1.00
4795;DHT22;2411;47.060;15.064;2023-02-15T08:29:37;0.80;1.00
4795;DHT22;2411;47.060;15.064;2023-02-15T08:32:09;0.70;1.00
4795;DHT22;2411;47.060;15.064;2023-02-15T08:34:39;0.80;1.00
4795;DHT22;2411;47.060;15.064;2023-02-15T08:37:08;0.60;1.00
4795;DHT22;2411;47.060;15.064;2023-02-15T08:39:36;0.90;1.00
4795;DHT22;2411;47.060;15.064;2023-02-15T08:42:05;0.80;1.00
4795;DHT22;2411;47.060;15.064;2023-02-15T08:44:32;1.00;1.00
4795;DHT22;2411;47.060;15.064;2023-02-15T08:46:59;1.00;1.00
4795;DHT22;2411;47.060;15.064;2023-02-15T08:49:31;1.10;1.00
4795;DHT22;2411;47.060;15.064;2023-02-15T08:51:58;1.30;1.00
4795;DHT22;2411;47.060;15.064;2023-02-15T08:54:26;1.30;1.00
4795;DHT22;2411;47.060;15.064;2023-02-15T08:56:54;1.40;1.00
4795;DHT22;2411;47.060;15.064;2023-02-15T08:59:22;1.30;1.00
4795;DHT22;2411;47.060;15.064;2023-02-15T09:01:52;1.20;1.00
4795;DHT22;2411;47.060;15.064;2023-02-15T09:04:20;1.50;1.00
4795;DHT22;2411;47.060;15.064;2023-02-15T09:06:48;1.70;1.00
4795;DHT22;2411;47.060;15.064;2023-02-15T09:09:17;1.60;1.00
4795;DHT22;2411;47.060;15.064;2023-02-15T09:11:48;1.60;1.00
4795;DHT22;2411;47.060;15.064;2023-02-15T09:14:21;1.60;1.00
4795;DHT22;2411;47.060;15.064;2023-02-15T09:16:52;1.60;1.00
4795;DHT22;2411;47.060;15.064;2023-02-15T09:19:21;1.70;1.00
4795;DHT22;2411;47.060;15.064;2023-02-15T09:21:49;1.50;1.00
4795;DHT22;2411;47.060;15.064;2023-02-15T09:24:17;1.70;1.00
4795;DHT22;2411;47.060;15.064;2023-02-15T09:26:47;1.80;1.00
4795;DHT22;2411;47.060;15.064;2023-02-15T09:29:16;1.80;1.00
4795;DHT22;2411;47.060;15.064;2023-02-15T09:31:45;1.90;1.00
4795;DHT22;2411;47.060;15.064;2023-02-15T09:34:14;1.80;1.00
4795;DHT22;2411;47.060;15.064;2023-02-15T09:36:45;1.90;1.00
4795;DHT22;2411;47.060;15.064;2023-02-15T09:39:22;2.00;1.00
4795;DHT22;2411;47.060;15.064;2023-02-15T09:58:52;2.20;1.00
4795;DHT22;2411;47.060;15.064;2023-02-15T10:01:43;2.40;1.00
4795;DHT22;2411;47.060;15.064;2023-02-15T10:15:06;2.60;1.00
4795;DHT22;2411;47.060;15.064;2023-02-15T10:23:06;2.90;1.00
4795;DHT22;2411;47.060;15.064;2023-02-15T10:28:20;3.20;1.00
4795;DHT22;2411;47.060;15.064;2023-02-15T10:30:53;3.20;1.00
4795;DHT22;2411;47.060;15.064;2023-02-15T10:39:16;3.20;1.00
4795;DHT22;2411;47.060;15.064;2023-02-15T10:45:30;3.50;1.00
4795;DHT22;2411;47.060;15.064;2023-02-15T10:48:32;3.60;1.00
4795;DHT22;2411;47.060;15.064;2023-02-15T10:51:03;3.80;1.00
4795;DHT22;2411;47.060;15.064;2023-02-15T11:07:12;4.10;1.00
4795;DHT22;2411;47.060;15.064;2023-02-15T11:09:53;4.20;1.00
4795;DHT22;2411;47.060;15.064;2023-02-15T11:12:24;4.20;1.00
4795;DHT22;2411;47.060;15.064;2023-02-15T11:15:18;4.40;1.00
4795;DHT22;2411;47.060;15.064;2023-02-15T11:17:56;4.40;1.00
4795;DHT22;2411;47.060;15.064;2023-02-15T11:20:35;4.50;1.00
4795;DHT22;2411;47.060;15.064;2023-02-15T11:23:13;4.60;1.00
4795;DHT22;2411;47.060;15.064;2023-02-15T11:25:45;4.60;1.00
4795;DHT22;2411;47.060;15.064;2023-02-15T11:28:24;4.90;1.00
4795;DHT22;2411;47.060;15.064;2023-02-15T11:30:55;5.00;1.00
4795;DHT22;2411;47.060;15.064;2023-02-15T11:33:31;5.00;1.00
4795;DHT22;2411;47.060;15.064;2023-02-15T11:38:34;5.00;1.00
4795;DHT22;2411;47.060;15.064;2023-02-15T11:41:17;5.10;1.00
4795;DHT22;2411;47.060;15.064;2023-02-15T11:43:54;5.30;1.00
4795;DHT22;2411;47.060;15.064;2023-02-15T11:46:23;5.50;1.00
4795;DHT22;2411;47.060;15.064;2023-02-15T11:48:51;5.50;1.00
4795;DHT22;2411;47.060;15.064;2023-02-15T11:51:21;5.60;1.00
4795;DHT22;2411;47.060;15.064;2023-02-15T11:53:50;5.80;1.00
4795;DHT22;2411;47.060;15.064;2023-02-15T11:56:23;5.90;1.00
4795;DHT22;2411;47.060;15.064;2023-02-15T11:58:59;6.00;1.00
4795;DHT22;2411;47.060;15.064;2023-02-15T12:01:42;5.90;1.00
4795;DHT22;2411;47.060;15.064;2023-02-15T12:06:57;6.10;1.00
4795;DHT22;2411;47.060;15.064;2023-02-15T12:12:26;6.20;1.00
4795;DHT22;2411;47.060;15.064;2023-02-15T12:14:59;6.40;1.00
4795;DHT22;2411;47.060;15.064;2023-02-15T12:17:29;6.60;1.00
4795;DHT22;2411;47.060;15.064;2023-02-15T12:20:01;6.60;1.00
4795;DHT22;2411;47.060;15.064;2023-02-15T12:22:31;6.60;1.00
4795;DHT22;2411;47.060;15.064;2023-02-15T12:25:01;6.60;1.00
4795;DHT22;2411;47.060;15.064;2023-02-15T12:27:31;6.50;1.00
4795;DHT22;2411;47.060;15.064;2023-02-15T12:38:42;7.10;1.00
4795;DHT22;2411;47.060;15.064;2023-02-15T12:41:28;7.10;1.00
4795;DHT22;2411;47.060;15.064;2023-02-15T12:44:17;7.20;1.00
4795;DHT22;2411;47.060;15.064;2023-02-15T12:52:01;7.20;1.00
4795;DHT22;2411;47.060;15.064;2023-02-15T12:56:58;7.50;1.00
4795;DHT22;2411;47.060;15.064;2023-02-15T12:59:26;7.60;1.00
4795;DHT22;2411;47.060;15.064;2023-02-15T13:01:53;7.80;2.90
4795;DHT22;2411;47.060;15.064;2023-02-15T13:04:26;7.80;2.90
4795;DHT22;2411;47.060;15.064;2023-02-15T13:06:58;7.90;3.10
4795;DHT22;2411;47.060;15.064;2023-02-15T13:09:34;7.90;3.10
4795;DHT22;2411;47.060;15.064;2023-02-15T13:12:25;7.90;3.00
4795;DHT22;2411;47.060;15.064;2023-02-15T13:14:59;8.00;2.80
4795;DHT22;2411;47.060;15.064;2023-02-15T13:17:33;7.90;3.20
4795;DHT22;2411;47.060;15.064;2023-02-15T13:20:16;8.00;3.40
4795;DHT22;2411;47.060;15.064;2023-02-15T13:22:46;7.90;2.90
4795;DHT22;2411;47.060;15.064;2023-02-15T13:25:24;7.90;3.30
4795;DHT22;2411;47.060;15.064;2023-02-15T13:27:57;7.90;2.90
4795;DHT22;2411;47.060;15.064;2023-02-15T13:30:28;7.90;2.00
4795;DHT22;2411;47.060;15.064;2023-02-15T13:33:03;7.90;2.70
4795;DHT22;2411;47.060;15.064;2023-02-15T13:35:38;7.90;2.30
4795;DHT22;2411;47.060;15.064;2023-02-15T13:40:58;8.00;3.60
4795;DHT22;2411;47.060;15.064;2023-02-15T13:51:57;8.00;3.50
4795;DHT22;2411;47.060;15.064;2023-02-15T14:00:10;7.90;1.70
4795;DHT22;2411;47.060;15.064;2023-02-15T14:02:59;7.90;2.00
4795;DHT22;2411;47.060;15.064;2023-02-15T14:05:58;7.80;1.50
4795;DHT22;2411;47.060;15.064;2023-02-15T14:11:43;7.70;1.00
4795;DHT22;2411;47.060;15.064;2023-02-15T14:14:35;7.70;1.00
4795;DHT22;2411;47.060;15.064;2023-02-15T14:19:58;7.60;1.00
4795;DHT22;2411;47.060;15.064;2023-02-15T14:22:47;7.50;1.00
4795;DHT22;2411;47.060;15.064;2023-02-15T14:25:37;7.60;1.00
4795;DHT22;2411;47.060;15.064;2023-02-15T14:28:10;7.40;1.00
4795;DHT22;2411;47.060;15.064;2023-02-15T14:30:42;7.40;1.00
4795;DHT22;2411;47.060;15.064;2023-02-15T14:35:42;7.30;1.00
4795;DHT22;2411;47.060;15.064;2023-02-15T15:00:01;7.00;1.50
4795;DHT22;2411;47.060;15.064;2023-02-15T15:02:50;6.90;1.80
4795;DHT22;2411;47.060;15.064;2023-02-15T15:05:34;6.80;1.40
4795;DHT22;2411;47.060;15.064;2023-02-15T15:08:03;6.70;1.00
4795;DHT22;2411;47.060;15.064;2023-02-15T15:10:37;6.70;1.00
4795;DHT22;2411;47.060;15.064;2023-02-15T15:18:50;6.40;1.00
4795;DHT22;2411;47.060;15.064;2023-02-15T15:32:44;6.00;1.00
4795;DHT22;2411;47.060;15.064;2023-02-15T15:49:15;5.20;1.00
4795;DHT22;2411;47.060;15.064;2023-02-15T15:51:43;5.10;1.00
4795;DHT22;2411;47.060;15.064;2023-02-15T15:54:23;5.00;1.00
4795;DHT22;2411;47.060;15.064;2023-02-15T15:56:59;4.80;1.00
4795;DHT22;2411;47.060;15.064;2023-02-15T15:59:33;4.60;1.00
4795;DHT22;2411;47.060;15.064;2023-02-15T16:02:10;4.50;1.00
4795;DHT22;2411;47.060;15.064;2023-02-15T16:04:38;4.50;1.00
4795;DHT22;2411;47.060;15.064;2023-02-15T16:12:21;4.10;1.00
4795;DHT22;2411;47.060;15.064;2023-02-15T16:14:49;3.90;1.00
4795;DHT22;2411;47.060;15.064;2023-02-15T16:17:25;3.80;1.00
4795;DHT22;2411;47.060;15.064;2023-02-15T16:20:14;3.70;1.00
4795;DHT22;2411;47.060;15.064;2023-02-15T16:22:43;3.60;1.00
4795;DHT22;2411;47.060;15.064;2023-02-15T16:28:26;3.40;1.00
4795;DHT22;2411;47.060;15.064;2023-02-15T16:31:14;3.30;1.00
4795;DHT22;2411;47.060;15.064;2023-02-15T16:33:43;3.20;1.00
4795;DHT22;2411;47.060;15.064;2023-02-15T16:36:23;3.10;1.00
4795;DHT22;2411;47.060;15.064;2023-02-15T16:41:28;2.90;1.00
4795;DHT22;2411;47.060;15.064;2023-02-15T16:44:07;2.90;1.00
4795;DHT22;2411;47.060;15.064;2023-02-15T16:46:41;3.00;1.00
4795;DHT22;2411;47.060;15.064;2023-02-15T16:49:24;2.90;1.00
4795;DHT22;2411;47.060;15.064;2023-02-15T16:52:02;2.70;1.00
4795;DHT22;2411;47.060;15.064;2023-02-15T16:54:30;2.60;1.00
4795;DHT22;2411;47.060;15.064;2023-02-15T16:56:58;2.60;1.00
4795;DHT22;2411;47.060;15.064;2023-02-15T16:59:41;2.60;1.00
4795;DHT22;2411;47.060;15.064;2023-02-15T17:02:21;2.50;1.00
4795;DHT22;2411;47.060;15.064;2023-02-15T17:05:14;2.50;1.00
4795;DHT22;2411;47.060;15.064;2023-02-15T17:10:39;2.40;1.00
4795;DHT22;2411;47.060;15.064;2023-02-15T17:13:16;2.30;1.00
4795;DHT22;2411;47.060;15.064;2023-02-15T17:18:33;1.90;1.00
4795;DHT22;2411;47.060;15.064;2023-02-15T17:21:20;1.90;1.00
4795;DHT22;2411;47.060;15.064;2023-02-15T17:23:50;1.80;1.00
4795;DHT22;2411;47.060;15.064;2023-02-15T17:26:21;1.80;1.00
4795;DHT22;2411;47.060;15.064;2023-02-15T17:28:50;1.70;1.00
4795;DHT22;2411;47.060;15.064;2023-02-15T17:31:20;1.60;1.00
4795;DHT22;2411;47.060;15.064;2023-02-15T17:33:47;1.60;1.00
4795;DHT22;2411;47.060;15.064;2023-02-15T17:36:20;1.60;1.00
4795;DHT22;2411;47.060;15.064;2023-02-15T17:39:00;1.60;1.00
4795;DHT22;2411;47.060;15.064;2023-02-15T17:41:30;1.50;1.00
4795;DHT22;2411;47.060;15.064;2023-02-15T17:43:58;1.50;1.00
4795;DHT22;2411;47.060;15.064;2023-02-15T17:46:26;1.50;1.00
4795;DHT22;2411;47.060;15.064;2023-02-15T17:48:56;1.40;1.00
4795;DHT22;2411;47.060;15.064;2023-02-15T17:51:23;1.30;1.00
4795;DHT22;2411;47.060;15.064;2023-02-15T17:53:51;1.30;1.00
4795;DHT22;2411;47.060;15.064;2023-02-15T17:56:37;1.20;1.00
4795;DHT22;2411;47.060;15.064;2023-02-15T17:59:05;1.20;1.00
4795;DHT22;2411;47.060;15.064;2023-02-15T18:01:44;1.00;1.00
4795;DHT22;2411;47.060;15.064;2023-02-15T18:04:32;1.00;1.00
4795;DHT22;2411;47.060;15.064;2023-02-15T18:07:19;0.90;1.00
4795;DHT22;2411;47.060;15.064;2023-02-15T18:10:16;1.00;1.00
4795;DHT22;2411;47.060;15.064;2023-02-15T18:13:03;0.90;1.00
4795;DHT22;2411;47.060;15.064;2023-02-15T18:15:30;0.90;1.00
4795;DHT22;2411;47.060;15.064;2023-02-15T18:17:57;0.80;1.00
4795;DHT22;2411;47.060;15.064;2023-02-15T18:20:34;0.70;1.00
4795;DHT22;2411;47.060;15.064;2023-02-15T18:23:03;0.80;1.00
4795;DHT22;2411;47.060;15.064;2023-02-15T18:25:30;0.60;1.00
4795;DHT22;2411;47.060;15.064;2023-02-15T18:27:57;0.40;1.00
4795;DHT22;2411;47.060;15.064;2023-02-15T18:30:25;0.30;1.00
4795;DHT22;2411;47.060;15.064;2023-02-15T18:32:55;0.10;1.00
4795;DHT22;2411;47.060;15.064;2023-02-15T18:35:26;0.00;1.00
4795;DHT22;2411;47.060;15.064;2023-02-15T18:37:54;0.00;1.00
4795;DHT22;2411;47.060;15.064;2023-02-15T18:40:25;-0.10;1.00
4795;DHT22;2411;47.060;15.064;2023-02-15T18:42:53;-0.10;1.00
4795;DHT22;2411;47.060;15.064;2023-02-15T18:45:27;0.10;1.00
4795;DHT22;2411;47.060;15.064;2023-02-15T18:47:58;0.10;4.50
4795;DHT22;2411;47.060;15.064;2023-02-15T18:50:29;0.10;1.00
4795;DHT22;2411;47.060;15.064;2023-02-15T18:52:57;0.10;1.00
4795;DHT22;2411;47.060;15.064;2023-02-15T18:55:26;0.10;1.00
4795;DHT22;2411;47.060;15.064;2023-02-15T18:57:58;0.10;1.00
4795;DHT22;2411;47.060;15.064;2023-02-15T19:00:29;0.00;1.00
4795;DHT22;2411;47.060;15.064;2023-02-15T19:02:59;0.00;1.00
4795;DHT22;2411;47.060;15.064;2023-02-15T19:05:28;-0.20;1.00
4795;DHT22;2411;47.060;15.064;2023-02-15T19:07:58;-0.20;1.00
4795;DHT22;2411;47.060;15.064;2023-02-15T19:10:27;-0.10;1.00
4795;DHT22;2411;47.060;15.064;2023-02-15T19:12:56;-0.10;1.00
4795;DHT22;2411;47.060;15.064;2023-02-15T19:15:26;-0.10;1.00
4795;DHT22;2411;47.060;15.064;2023-02-15T19:17:54;-0.20;1.00
4795;DHT22;2411;47.060;15.064;2023-02-15T19:20:28;-0.30;1.00
4795;DHT22;2411;47.060;15.064;2023-02-15T19:22:57;-0.40;1.00
4795;DHT22;2411;47.060;15.064;2023-02-15T19:25:30;-0.50;1.00
4795;DHT22;2411;47.060;15.064;2023-02-15T19:27:58;-0.50;1.00
4795;DHT22;2411;47.060;15.064;2023-02-15T19:30:30;-0.60;1.00
4795;DHT22;2411;47.060;15.064;2023-02-15T19:32:59;-0.50;1.00
4795;DHT22;2411;47.060;15.064;2023-02-15T19:35:33;-0.50;1.00
4795;DHT22;2411;47.060;15.064;2023-02-15T19:38:05;-0.50;1.00
4795;DHT22;2411;47.060;15.064;2023-02-15T19:40:35;-0.50;1.00
4795;DHT22;2411;47.060;15.064;2023-02-15T19:43:02;-0.50;1.00
4795;DHT22;2411;47.060;15.064;2023-02-15T19:45:31;-0.60;1.00
4795;DHT22;2411;47.060;15.064;2023-02-15T19:48:05;-0.70;1.00
4795;DHT22;2411;47.060;15.064;2023-02-15T19:50:33;-0.90;1.00
4795;DHT22;2411;47.060;15.064;2023-02-15T19:53:01;-0.90;1.00
4795;DHT22;2411;47.060;15.064;2023-02-15T19:55:31;-0.90;1.00
4795;DHT22;2411;47.060;15.064;2023-02-15T19:58:02;-0.80;1.00
4795;DHT22;2411;47.060;15.064;2023-02-15T20:00:31;-0.70;1.00
4795;DHT22;2411;47.060;15.064;2023-02-15T20:02:59;-0.80;1.00
4795;DHT22;2411;47.060;15.064;2023-02-15T20:05:28;-0.80;1.00
4795;DHT22;2411;47.060;15.064;2023-02-15T20:07:57;-0.90;1.00
4795;DHT22;2411;47.060;15.064;2023-02-15T20:10:28;-1.10;1.00
4795;DHT22;2411;47.060;15.064;2023-02-15T20:12:56;-1.40;1.00
4795;DHT22;2411;47.060;15.064;2023-02-15T20:15:25;-1.50;1.00